Aeroporto :
LOGIN :

Iscrizione | Disclaimer

   EN    FR    IT 

 










Sommario :    VFR   VFR Marginale   IFR   IFR Intensivo   IFR Molto Intensivo
Visibilità : 
Base nubi : 
>= 8 km
>= 3000ft
5 / 8 km
1000 / 3000 ft
1500m / 5 km
500 / 1000 ft
800 / 1500m
200 / 500 ft
< 800m
< 200 ft
Simboli :   Temporali  Nebbia  Neve Forte  Precipitazioni Forti  Vento > 20 kt
SIGMETs :   Varie  Temporali  Ghiacco  Turbolenza  Onda orograficha  Ceneri Vulcaniche






- Altitudine del aeroporto : 121 ft
- Codice IATA : HUY


EGNJ - Humberside

ULTIMO METAR :
  • 070350Z AUTO VRB01KT 9999 SCT032/// SCT038/// 09/08 Q1003

METARs OBSOLETI :
  • 070320Z AUTO VRB03KT 9999 FEW039/// 09/08 Q1003 RERA
  • 070250Z AUTO 22005KT 9999 BKN049/// 09/08 Q1002 RERA
  • 070220Z AUTO VRB02KT 9999 FEW032/// BKN038/// BKN045/// 09/08 Q1002 RERA
  • 070150Z AUTO 25006KT 9999 OVC038/// 09/07 Q1002
  • 070120Z AUTO 22006KT 9999 BKN042/// BKN049/// 08/07 Q1002

TAF TAF EGNJ
Valido dal 07 a 03 ore il 07 a 12 ore UTC


070203Z 0703/0712 26005KT 9999 SCT025
TEMPO 0703/0712 7000 RA BKN009
BECMG 0707/0710 34012KT
ATIS : +44 1652 682 020



MetMap, La meteo Aeronautica in un colpo d'occhio ! - Copyright ORBIFLY Dicembre 2007 - Disclaimer

ORBIFLY MET'MAP TEAM :

Programmazione e sviluppo : Alexandra Zaïnal
Concezione : Baudouin d'Aumeries
Aiuto per la programmazione : Marc-Olivier Méhu
Supporto tecnico e logistico : Manuel Goepfert
Aiuto per la traduzione : Arnaldo La Scala

Contatto : metmap@orbifly.com




FONTI E CREDITI :

   NOAA